createdAt,value
2022-10-21T00:01:22.559Z,80.48
2022-10-21T00:04:29.420Z,80.74
2022-10-21T00:07:35.171Z,80.55
2022-10-21T00:10:41.720Z,80.28
2022-10-21T00:13:48.669Z,80.63
2022-10-21T00:16:55.179Z,80.66
2022-10-21T00:19:53.775Z,80.30
2022-10-21T00:23:00.276Z,79.72
2022-10-21T00:26:12.527Z,79.46
2022-10-21T00:29:19.220Z,79.28
2022-10-21T00:32:25.610Z,79.81
2022-10-21T00:35:31.314Z,79.37
2022-10-21T00:38:36.873Z,79.15
2022-10-21T00:41:42.788Z,78.98
2022-10-21T00:44:51.357Z,78.35
2022-10-21T00:48:09.237Z,78.39
2022-10-21T00:51:21.622Z,78.29
2022-10-21T00:54:27.096Z,79.10
2022-10-21T00:57:34.056Z,79.33
2022-10-21T01:00:40.206Z,79.33
2022-10-21T01:03:46.475Z,79.50
2022-10-21T01:06:52.461Z,79.18
2022-10-21T01:09:57.392Z,79.01
2022-10-21T01:13:50.979Z,78.46
2022-10-21T01:17:26.433Z,79.15
2022-10-21T01:20:53.152Z,79.12
2022-10-21T01:24:18.592Z,79.28
2022-10-21T01:27:27.719Z,78.75
2022-10-21T01:30:54.438Z,79.21
2022-10-21T01:34:06.738Z,79.54
2022-10-21T01:37:29.067Z,79.49
2022-10-21T01:40:38.217Z,79.80
2022-10-21T01:43:59.818Z,79.99
2022-10-21T01:47:15.600Z,80.94
2022-10-21T01:50:25.455Z,79.01
2022-10-21T01:53:21.782Z,79.48
2022-10-21T01:56:28.269Z,79.66
2022-10-21T01:59:34.375Z,79.78
2022-10-21T02:02:43.048Z,79.83
2022-10-21T02:05:48.550Z,79.02
2022-10-21T02:08:56.080Z,78.75
2022-10-21T02:12:04.807Z,79.59
2022-10-21T02:15:10.722Z,79.03
2022-10-21T02:18:25.943Z,79.46
2022-10-21T02:21:34.084Z,78.88
2022-10-21T02:24:53.411Z,79.80
2022-10-21T02:27:53.968Z,79.91
2022-10-21T02:31:22.053Z,80.50
2022-10-21T02:34:55.700Z,81.05
2022-10-21T02:38:29.120Z,81.04
2022-10-21T02:41:36.789Z,80.72
2022-10-21T02:44:42.625Z,79.83
2022-10-21T02:47:44.842Z,80.13
2022-10-21T02:50:51.099Z,79.76
2022-10-21T02:53:55.902Z,80.12
2022-10-21T02:57:02.559Z,79.93
2022-10-21T03:00:09.229Z,79.73
2022-10-21T03:03:15.649Z,79.38
2022-10-21T03:06:21.643Z,79.40
2022-10-21T03:09:27.239Z,79.39
2022-10-21T03:12:34.238Z,79.02
2022-10-21T03:15:41.042Z,79.24
2022-10-21T03:18:46.663Z,79.25
2022-10-21T03:21:53.555Z,79.51
2022-10-21T03:25:01.186Z,79.44
2022-10-21T03:28:07.375Z,79.78
2022-10-21T03:31:13.219Z,80.19
2022-10-21T03:34:19.011Z,80.44
2022-10-21T03:37:24.701Z,81.18
2022-10-21T03:40:30.918Z,81.59
2022-10-21T03:43:38.742Z,81.55
2022-10-21T03:46:43.398Z,81.91
2022-10-21T03:49:42.189Z,81.61
2022-10-21T03:52:27.621Z,81.54
2022-10-21T03:55:20.387Z,82.10
2022-10-21T03:58:07.346Z,81.55
2022-10-21T04:01:01.592Z,81.74
2022-10-21T04:03:55.136Z,82.29
2022-10-21T04:07:01.130Z,83.05
2022-10-21T04:10:06.240Z,82.59
2022-10-21T04:13:12.571Z,83.57
2022-10-21T04:16:21.254Z,83.49
2022-10-21T04:19:32.987Z,82.37
2022-10-21T04:22:39.727Z,82.37
2022-10-21T04:25:44.699Z,82.69
2022-10-21T04:28:49.948Z,82.54
2022-10-21T04:35:01.678Z,82.93
2022-10-21T04:38:08.984Z,83.95
2022-10-21T04:41:16.790Z,84.09
2022-10-21T04:44:22.657Z,83.49
2022-10-21T04:47:29.210Z,83.94
2022-10-21T04:50:34.816Z,84.38
2022-10-21T04:53:41.187Z,84.81
2022-10-21T04:56:40.475Z,84.53
2022-10-21T04:59:26.383Z,84.34
2022-10-21T05:02:22.994Z,83.75
2022-10-21T05:05:08.730Z,83.47
2022-10-21T05:08:02.268Z,83.79
2022-10-21T05:11:12.738Z,84.35
2022-10-21T05:14:22.507Z,84.13
2022-10-21T05:17:26.936Z,83.68
2022-10-21T05:20:33.337Z,83.86
2022-10-21T05:23:40.856Z,84.58
2022-10-21T05:26:46.497Z,83.62
2022-10-21T05:29:52.667Z,84.49
2022-10-21T05:32:59.501Z,84.75
2022-10-21T05:36:20.534Z,84.79
2022-10-21T05:39:24.994Z,83.93
2022-10-21T05:42:30.629Z,84.03
2022-10-21T05:45:36.781Z,84.17
2022-10-21T05:48:42.971Z,84.52
2022-10-21T05:51:47.891Z,84.45
2022-10-21T05:54:59.488Z,84.61
2022-10-21T05:58:05.278Z,84.60
2022-10-21T06:01:12.664Z,84.25
2022-10-21T06:04:18.429Z,83.73
2022-10-21T06:07:24.229Z,83.48
2022-10-21T06:10:29.938Z,82.47
2022-10-21T06:13:35.408Z,81.61
2022-10-21T06:16:41.925Z,81.08
2022-10-21T06:19:50.181Z,81.19
2022-10-21T06:22:56.115Z,80.52
2022-10-21T06:26:17.075Z,80.57
2022-10-21T06:29:22.967Z,80.66
2022-10-21T06:32:28.630Z,79.82
2022-10-21T06:35:35.083Z,79.51
2022-10-21T06:38:43.884Z,79.54
2022-10-21T06:41:50.094Z,79.29
2022-10-21T06:45:00.162Z,77.38
2022-10-21T06:47:58.411Z,77.42
2022-10-21T06:51:04.540Z,77.57
2022-10-21T06:54:12.757Z,76.98
2022-10-21T06:57:18.605Z,76.33
2022-10-21T07:00:25.669Z,76.34
2022-10-21T07:03:31.310Z,75.72
2022-10-21T07:06:37.218Z,74.81
2022-10-21T07:09:44.055Z,74.38
2022-10-21T07:12:50.643Z,73.70
2022-10-21T07:15:56.614Z,73.26
2022-10-21T07:18:56.935Z,73.36
2022-10-21T07:22:02.307Z,72.46
2022-10-21T07:25:08.574Z,71.02
2022-10-21T07:28:14.162Z,71.48
2022-10-21T07:31:20.104Z,71.20
2022-10-21T07:34:26.965Z,72.13
2022-10-21T07:37:33.690Z,70.85
2022-10-21T07:40:38.654Z,70.27
2022-10-21T07:43:45.137Z,68.34
2022-10-21T07:46:52.844Z,67.48
2022-10-21T07:49:58.982Z,65.20
2022-10-21T07:53:11.985Z,64.51
2022-10-21T07:56:22.279Z,64.56
2022-10-21T07:59:28.487Z,63.96
2022-10-21T08:02:35.508Z,61.69
2022-10-21T08:05:43.083Z,61.19
2022-10-21T08:08:48.921Z,60.30
2022-10-21T08:11:55.279Z,59.55
2022-10-21T08:14:55.971Z,57.60
2022-10-21T08:17:49.513Z,54.66
2022-10-21T08:20:56.484Z,54.34
2022-10-21T08:24:01.580Z,54.54
2022-10-21T08:27:07.179Z,52.11
2022-10-21T08:30:13.079Z,50.87
2022-10-21T08:33:19.577Z,50.78
2022-10-21T08:36:28.880Z,51.58
2022-10-21T08:39:34.397Z,50.76
2022-10-21T08:42:40.517Z,51.21
2022-10-21T08:45:59.824Z,50.54
2022-10-21T08:49:10.875Z,50.67
2022-10-21T08:52:20.332Z,51.77
2022-10-21T08:55:53.664Z,50.99
2022-10-21T08:59:02.060Z,51.23
2022-10-21T09:02:31.700Z,51.45
2022-10-21T09:06:02.764Z,51.60
2022-10-21T09:09:22.692Z,51.44
2022-10-21T09:12:48.006Z,51.60
2022-10-21T09:16:05.673Z,51.00
2022-10-21T09:19:56.205Z,51.38
2022-10-21T09:23:46.636Z,51.42
2022-10-21T09:27:02.583Z,51.11
2022-10-21T09:30:17.354Z,52.17
2022-10-21T09:33:39.985Z,50.74
2022-10-21T09:36:54.742Z,49.00
2022-10-21T09:40:05.329Z,49.93
2022-10-21T09:43:12.792Z,50.17
2022-10-21T09:46:12.028Z,50.29
2022-10-21T09:49:36.372Z,50.29
2022-10-21T09:51:53.970Z,49.55
2022-10-21T09:54:59.415Z,48.85
2022-10-21T09:58:15.079Z,48.81
2022-10-21T10:01:23.653Z,49.52
2022-10-21T10:04:46.983Z,49.11
2022-10-21T10:07:52.753Z,49.59
2022-10-21T10:10:57.889Z,50.22
2022-10-21T10:14:08.136Z,49.81
2022-10-21T10:17:35.833Z,50.75
2022-10-21T10:20:42.473Z,51.12
2022-10-21T10:24:01.734Z,51.07
2022-10-21T10:27:06.773Z,50.96
2022-10-21T10:30:13.383Z,50.56
2022-10-21T10:33:28.808Z,50.46
2022-10-21T10:36:48.588Z,50.79
2022-10-21T10:39:54.893Z,49.55
2022-10-21T10:43:01.416Z,50.31
2022-10-21T10:46:13.705Z,49.78
2022-10-21T10:49:32.950Z,49.14
2022-10-21T10:52:39.552Z,49.70
2022-10-21T10:55:45.339Z,49.51
2022-10-21T10:58:52.861Z,50.35
2022-10-21T11:02:26.173Z,50.05
2022-10-21T11:05:40.579Z,50.23
2022-10-21T11:08:50.432Z,50.23
2022-10-21T11:12:03.025Z,49.28
2022-10-21T11:15:12.128Z,49.94
2022-10-21T11:18:30.429Z,50.26
2022-10-21T11:22:03.770Z,50.01
2022-10-21T11:25:27.306Z,50.22
2022-10-21T11:28:54.457Z,50.63
2022-10-21T11:32:16.104Z,51.10
2022-10-21T11:35:39.000Z,51.63
2022-10-21T11:39:11.019Z,51.62
2022-10-21T11:42:48.816Z,51.53
2022-10-21T11:46:14.103Z,52.17
2022-10-21T11:49:36.369Z,52.53
2022-10-21T11:53:19.290Z,52.72
2022-10-21T11:56:47.332Z,51.81
2022-10-21T12:00:09.493Z,51.93
2022-10-21T12:03:34.586Z,52.69
2022-10-21T12:07:00.640Z,53.58
2022-10-21T12:10:33.517Z,53.19
2022-10-21T12:14:04.867Z,53.56
2022-10-21T12:17:11.342Z,54.12
2022-10-21T12:20:23.711Z,55.06
2022-10-21T12:23:32.095Z,54.29
2022-10-21T12:26:47.429Z,53.84
2022-10-21T12:30:15.686Z,53.70
2022-10-21T12:33:52.599Z,53.79
2022-10-21T12:36:55.912Z,53.79
2022-10-21T12:40:03.990Z,52.52
2022-10-21T12:43:37.641Z,53.09
2022-10-21T12:46:57.852Z,53.99
2022-10-21T12:50:21.920Z,54.82
2022-10-21T12:53:49.609Z,54.52
2022-10-21T12:57:02.012Z,54.37
2022-10-21T13:00:07.278Z,54.97
2022-10-21T13:03:26.496Z,55.55
2022-10-21T13:06:32.624Z,55.58
2022-10-21T13:10:05.423Z,55.61
2022-10-21T13:13:35.171Z,54.61
2022-10-21T13:16:43.703Z,54.17
2022-10-21T13:19:48.753Z,54.20
2022-10-21T13:23:01.802Z,54.26
2022-10-21T13:26:28.169Z,53.76
2022-10-21T13:29:52.141Z,53.54
2022-10-21T13:32:59.269Z,53.11
2022-10-21T13:36:10.904Z,53.97
2022-10-21T13:39:22.262Z,54.15
2022-10-21T13:42:28.677Z,54.60
2022-10-21T13:45:44.735Z,54.91
2022-10-21T13:48:55.383Z,55.65
2022-10-21T13:52:01.714Z,56.12
2022-10-21T13:55:08.114Z,56.85
2022-10-21T13:58:14.532Z,56.68
2022-10-21T14:01:30.998Z,56.41
2022-10-21T14:04:40.246Z,56.74
2022-10-21T14:07:46.819Z,57.76
2022-10-21T14:10:52.678Z,57.90
2022-10-21T14:13:58.125Z,58.21
2022-10-21T14:17:17.775Z,58.35
2022-10-21T14:20:29.159Z,59.22
2022-10-21T14:23:35.324Z,59.96
2022-10-21T14:26:41.045Z,59.96
2022-10-21T14:29:49.011Z,61.21
2022-10-21T14:32:56.954Z,61.88
2022-10-21T14:36:25.887Z,62.73
2022-10-21T14:39:33.371Z,63.52
2022-10-21T14:42:39.907Z,63.72
2022-10-21T14:45:52.802Z,63.46
2022-10-21T14:49:12.320Z,64.12
2022-10-21T14:52:21.534Z,64.60
2022-10-21T14:55:38.851Z,65.14
2022-10-21T14:58:53.863Z,65.89
2022-10-21T15:01:59.643Z,66.45
2022-10-21T15:05:08.622Z,67.25
2022-10-21T15:08:43.659Z,68.35
2022-10-21T15:11:52.920Z,68.60
2022-10-21T15:14:58.453Z,69.03
2022-10-21T15:18:07.431Z,69.59
2022-10-21T15:21:29.965Z,70.24
2022-10-21T15:24:56.427Z,70.67
2022-10-21T15:28:03.560Z,70.84
2022-10-21T15:31:09.731Z,71.28
2022-10-21T15:34:16.512Z,71.44
2022-10-21T15:37:23.276Z,71.78
2022-10-21T15:40:28.802Z,72.17
2022-10-21T15:43:34.857Z,72.26
2022-10-21T15:46:41.154Z,72.86
2022-10-21T15:49:56.760Z,72.87
2022-10-21T15:53:02.329Z,72.85
2022-10-21T15:56:07.878Z,73.36
2022-10-21T15:59:13.539Z,74.11
2022-10-21T16:02:19.214Z,75.14
2022-10-21T16:05:24.935Z,75.08
2022-10-21T16:08:30.549Z,75.31
2022-10-21T16:11:41.033Z,75.23
2022-10-21T16:14:44.900Z,75.19
2022-10-21T16:17:51.493Z,74.87
2022-10-21T16:20:58.570Z,74.64
2022-10-21T16:24:05.390Z,74.58
2022-10-21T16:27:11.123Z,74.81
2022-10-21T16:30:32.549Z,75.32
2022-10-21T16:33:39.759Z,74.94
2022-10-21T16:36:45.986Z,75.35
2022-10-21T16:39:52.462Z,75.48
2022-10-21T16:42:57.870Z,75.86
2022-10-21T16:46:03.595Z,76.00
2022-10-21T16:49:11.991Z,76.18
2022-10-21T16:52:17.191Z,76.43
2022-10-21T16:55:27.107Z,76.55
2022-10-21T16:58:33.323Z,76.28
2022-10-21T17:01:40.178Z,76.22
2022-10-21T17:04:45.860Z,76.40
2022-10-21T17:07:52.447Z,76.55
2022-10-21T17:10:58.788Z,76.74
2022-10-21T17:14:05.456Z,76.80
2022-10-21T17:17:11.256Z,77.51
2022-10-21T17:20:17.642Z,77.73
2022-10-21T17:23:24.788Z,77.55
2022-10-21T17:26:30.964Z,77.96
2022-10-21T17:29:36.772Z,78.31
2022-10-21T17:35:41.867Z,78.79
2022-10-21T17:38:48.841Z,78.99
2022-10-21T17:41:55.378Z,79.23
2022-10-21T17:45:03.794Z,78.89
2022-10-21T17:48:10.201Z,79.52
2022-10-21T17:51:17.105Z,79.76
2022-10-21T17:54:26.516Z,79.73
2022-10-21T17:57:31.005Z,79.50
2022-10-21T18:00:39.952Z,79.20
2022-10-21T18:03:45.614Z,78.25
2022-10-21T18:06:52.617Z,77.85
2022-10-21T18:09:58.074Z,78.39
2022-10-21T18:12:57.888Z,78.04
2022-10-21T18:15:49.573Z,78.23
2022-10-21T18:21:30.569Z,77.88
2022-10-21T18:24:26.882Z,78.06
2022-10-21T18:27:12.667Z,77.59
2022-10-21T18:30:06.003Z,77.54
2022-10-21T18:32:58.954Z,77.65
2022-10-21T18:36:05.119Z,78.23
2022-10-21T18:39:12.565Z,78.14
2022-10-21T18:42:19.929Z,78.09
2022-10-21T18:45:25.876Z,78.08
2022-10-21T18:48:31.473Z,78.35
2022-10-21T18:51:37.543Z,78.06
2022-10-21T18:54:36.669Z,77.62
2022-10-21T18:57:43.061Z,78.13
2022-10-21T19:00:50.971Z,78.20
2022-10-21T19:03:58.891Z,78.52
2022-10-21T19:07:06.168Z,78.59
2022-10-21T19:10:13.028Z,78.48
2022-10-21T19:13:19.728Z,78.27
2022-10-21T19:16:25.686Z,78.52
2022-10-21T19:19:35.901Z,78.35
2022-10-21T19:22:39.944Z,78.27
2022-10-21T19:25:47.119Z,78.06
2022-10-21T19:28:53.742Z,78.11
2022-10-21T19:32:00.404Z,78.49
2022-10-21T19:35:07.501Z,78.22
2022-10-21T19:38:20.857Z,78.36
2022-10-21T19:41:27.581Z,78.45
2022-10-21T19:44:34.749Z,78.96
2022-10-21T19:47:41.307Z,79.19
2022-10-21T19:50:47.753Z,79.24
2022-10-21T19:53:54.265Z,79.11
2022-10-21T19:57:00.463Z,78.60
2022-10-21T20:00:05.859Z,78.67
2022-10-21T20:03:10.999Z,78.88
2022-10-21T20:06:24.694Z,79.33
2022-10-21T20:09:32.817Z,79.12
2022-10-21T20:12:38.836Z,79.25
2022-10-21T20:15:47.206Z,79.46
2022-10-21T20:18:54.420Z,79.74
2022-10-21T20:22:00.271Z,79.76
2022-10-21T20:25:09.296Z,79.69
2022-10-21T20:28:14.528Z,79.52
2022-10-21T20:31:23.757Z,79.32
2022-10-21T20:34:28.466Z,79.26
2022-10-21T20:37:34.748Z,79.44
2022-10-21T20:40:40.655Z,79.49
2022-10-21T20:43:45.456Z,79.31
2022-10-21T20:46:51.287Z,79.25
2022-10-21T20:49:57.068Z,79.35
2022-10-21T20:53:03.908Z,79.41
2022-10-21T20:56:12.999Z,79.32
2022-10-21T20:59:19.368Z,79.09
2022-10-21T21:02:25.288Z,79.13
2022-10-21T21:05:31.596Z,79.18
2022-10-21T21:08:41.479Z,79.23
2022-10-21T21:11:46.167Z,79.23
2022-10-21T21:14:52.264Z,79.26
2022-10-21T21:18:03.190Z,79.47
2022-10-21T21:21:10.469Z,79.45
2022-10-21T21:24:15.948Z,79.59
2022-10-21T21:27:21.565Z,79.92
2022-10-21T21:30:26.884Z,80.13
2022-10-21T21:33:32.826Z,80.17
2022-10-21T21:36:38.494Z,80.43
2022-10-21T21:39:44.932Z,80.29
2022-10-21T21:42:50.608Z,79.89
2022-10-21T21:46:02.405Z,79.89
2022-10-21T21:49:10.501Z,79.75
2022-10-21T21:52:16.008Z,79.87
2022-10-21T21:55:22.178Z,79.85
2022-10-21T21:58:27.976Z,79.95
2022-10-21T22:01:35.692Z,79.98
2022-10-21T22:04:42.418Z,80.17
2022-10-21T22:07:47.159Z,80.14
2022-10-21T22:10:53.447Z,80.05
2022-10-21T22:14:00.113Z,80.02
2022-10-21T22:17:06.998Z,80.23
2022-10-21T22:20:12.681Z,80.20
2022-10-21T22:23:18.115Z,80.66
2022-10-21T22:26:24.178Z,80.75
2022-10-21T22:29:30.141Z,81.01
2022-10-21T22:32:36.432Z,81.45
2022-10-21T22:35:43.250Z,81.45
2022-10-21T22:38:49.894Z,81.46
2022-10-21T22:41:56.301Z,81.12
2022-10-21T22:45:02.623Z,81.03
2022-10-21T22:48:08.008Z,81.16
2022-10-21T22:51:13.769Z,81.05
2022-10-21T22:54:42.965Z,80.84
2022-10-21T22:57:25.814Z,80.60
2022-10-21T23:00:31.555Z,80.17
2022-10-21T23:03:37.135Z,79.83
2022-10-21T23:06:48.325Z,79.56
2022-10-21T23:09:57.431Z,78.73
2022-10-21T23:13:03.829Z,78.86
2022-10-21T23:16:09.550Z,78.67
2022-10-21T23:19:16.386Z,78.07
2022-10-21T23:22:22.390Z,77.56
2022-10-21T23:25:29.707Z,77.13
2022-10-21T23:28:36.038Z,77.06
2022-10-21T23:31:41.705Z,77.71
2022-10-21T23:34:48.071Z,78.54
2022-10-21T23:37:54.287Z,79.12
2022-10-21T23:40:59.961Z,79.18
2022-10-21T23:43:52.759Z,78.49
2022-10-21T23:46:59.458Z,78.46
2022-10-21T23:50:05.230Z,78.41
2022-10-21T23:53:10.920Z,78.29
2022-10-21T23:56:17.664Z,78.31
2022-10-21T23:59:23.257Z,78.65
